ADDS METAR Data INFO
IDs: Format: Raw Decoded Include TAF

Data at: 0307 UTC 21 Oct 2017

KC09 210255Z AUTO 17008KT 10SM CLR 17/09 A3005 RMK AO2 T01730085
KC09 210235Z AUTO 17008KT 10SM CLR 18/08 A3005 RMK AO2 T01760082
KC09 210215Z AUTO 18009KT 10SM CLR 18/08 A3004 RMK AO2 T01780080
KC09 210155Z AUTO 16009KT 10SM CLR 18/08 A3004 RMK AO2 T01820080
KC09 210135Z AUTO 16010KT 10SM CLR 19/08 A3004 RMK AO2 T01880080
KC09 210115Z AUTO 16009KT 10SM CLR 19/08 A3004 RMK AO2 T01900080
KC09 210055Z AUTO 17008KT 10SM CLR 19/08 A3004 RMK AO2 T01920082
KC09 210035Z AUTO 17008KT 10SM CLR 20/09 A3004 RMK AO2 T01950085
KC09 210015Z AUTO 16007KT 10SM CLR 20/09 A3004 RMK AO2 T01970090
KC09 202355Z AUTO 16005KT 10SM CLR 20/09 A3004 RMK AO2 T01960090 10270 20195
KC09 202335Z AUTO 15005KT 10SM CLR 20/09 A3004 RMK AO2 T02040090
KC09 202315Z AUTO 16006KT 10SM CLR 21/09 A3004 RMK AO2 T02130092
KC09 202255Z AUTO 16007KT 10SM CLR 22/10 A3004 RMK AO2 T02240095
KC09 202235Z AUTO 15007KT 10SM CLR 23/10 A3004 RMK AO2 T02290100
KC09 202215Z AUTO 11005KT 10SM CLR 24/10 A3004 RMK AO2 T02390101
KC09 202155Z AUTO 16005KT 10SM CLR 24/10 A3005 RMK AO2 T02390097
KC09 202135Z AUTO 16008KT 10SM CLR 25/10 A3004 RMK AO2 T02500096
KC09 202115Z AUTO 17008KT 10SM CLR 25/09 A3005 RMK AO2 T02470090
KC09 202055Z AUTO 17009KT 10SM CLR 26/09 A3005 RMK AO2 T02610091
KC09 202035Z AUTO 16012G15KT 10SM CLR 27/09 A3005 RMK AO2 T02650091
KC09 202015Z AUTO 18011KT 10SM CLR 27/09 A3006 RMK AO2 T02690090
KC09 201955Z AUTO 16010KT 10SM CLR 27/09 A3006 RMK AO2 T02660093
KC09 201935Z AUTO 17011KT 10SM CLR 27/10 A3007 RMK AO2 T02690095
KC09 201915Z AUTO 19011G15KT 10SM CLR 26/09 A3008 RMK AO2 T02610093
KC09 201855Z AUTO 18012G15KT 10SM CLR 26/10 A3009 RMK AO2 T02630098
KC09 201835Z AUTO 20011G16KT 10SM CLR 26/10 A3009 RMK AO2 T02620100
KC09 201815Z AUTO 18008KT 10SM CLR 26/11 A3011 RMK AO2 T02560106
KC09 201755Z AUTO 17006KT 10SM CLR 25/11 A3012 RMK AO2 T02510110 10251 20096
KC09 201735Z AUTO 20006KT 10SM CLR 25/11 A3013 RMK AO2 T02460111
KC09 201715Z AUTO 20008KT 10SM CLR 24/11 A3014 RMK AO2 T02410111
KC09 201655Z AUTO 19008KT 10SM CLR 24/11 A3015 RMK AO2 T02350114
KC09 201635Z AUTO 21005KT 10SM CLR 23/11 A3016 RMK AO2 T02260113
KC09 201615Z AUTO 18007KT 10SM CLR 22/11 A3016 RMK AO2 T02180112
KC09 201555Z AUTO 21006KT 10SM CLR 21/11 A3017 RMK AO2 T02110113
KC09 201535Z AUTO 21008KT 10SM CLR 20/11 A3018 RMK AO2 T02040113
KC09 201515Z AUTO 22006KT 10SM CLR 19/12 A3018 RMK AO2 T01940115
KC09 201455Z AUTO 20009KT 10SM CLR 18/11 A3018 RMK AO2 T01810112
KC09 201435Z AUTO 21007KT 10SM CLR 17/11 A3018 RMK AO2 T01680109
KC09 201415Z AUTO 21005KT 10SM CLR 16/11 A3018 RMK AO2 T01600107
KC09 201355Z AUTO 19005KT 10SM CLR 15/10 A3018 RMK AO2 T01450104
KC09 201335Z AUTO 17004KT 10SM CLR 13/10 A3018 RMK AO2 T01330102
KC09 201315Z AUTO 00000KT 10SM CLR 12/10 A3018 RMK AO2 T01180098
KC09 201255Z AUTO 17003KT 10SM CLR 10/09 A3018 RMK AO2 T01000086
KC09 201235Z AUTO 17004KT 10SM CLR 10/09 A3017 RMK AO2 T00980085
KC09 201215Z AUTO 15003KT 10SM CLR 10/08 A3017 RMK AO2 T00960082
KC09 201155Z AUTO 16003KT 10SM CLR 10/09 A3016 RMK AO2 T01010085 10125 20100
KC09 201135Z AUTO 16004KT 10SM CLR 10/09 A3016 RMK AO2 T01020085
KC09 201115Z AUTO 16004KT 10SM CLR 10/09 A3016 RMK AO2 T01030085
KC09 201055Z AUTO 16004KT 10SM CLR 10/09 A3016 RMK AO2 T01030085
KC09 201035Z AUTO 16004KT 10SM CLR 11/09 A3016 RMK AO2 T01070087
KC09 201015Z AUTO 16005KT 10SM CLR 11/09 A3016 RMK AO2 T01050085
KC09 200955Z AUTO 16005KT 10SM CLR 11/09 A3016 RMK AO2 T01070086
KC09 200935Z AUTO 15004KT 10SM CLR 11/09 A3015 RMK AO2 T01080087
KC09 200915Z AUTO 16004KT 10SM CLR 11/09 A3014 RMK AO2 T01100088
KC09 200855Z AUTO 16003KT 10SM CLR 11/09 A3014 RMK AO2 T01140090
KC09 200835Z AUTO 17003KT 10SM CLR 11/09 A3014 RMK AO2 T01100089
KC09 200815Z AUTO 15003KT 10SM CLR 11/09 A3014 RMK AO2 T01130087
KC09 200755Z AUTO 15003KT 10SM CLR 12/09 A3014 RMK AO2 T01150085
KC09 200735Z AUTO 15003KT 10SM CLR 11/08 A3014 RMK AO2 T01140080
KC09 200715Z AUTO 16003KT 10SM CLR 12/08 A3014 RMK AO2 T01180075
KC09 200655Z AUTO 00000KT 10SM CLR 12/07 A3014 RMK AO2 T01230071
KC09 200635Z AUTO 00000KT 10SM CLR 13/06 A3014 RMK AO2 T01250061
KC09 200615Z AUTO 00000KT 10SM CLR 13/05 A3014 RMK AO2 T01250051
KC09 200555Z AUTO 00000KT 10SM CLR 13/05 A3014 RMK AO2 T01260045 10176 20118 402290086
KC09 200535Z AUTO 00000KT 10SM CLR 12/04 A3014 RMK AO2 T01240041
KC09 200515Z AUTO 17003KT 10SM CLR 12/04 A3014 RMK AO2 T01190042
KC09 200455Z AUTO 14005KT 10SM CLR 12/04 A3014 RMK AO2 T01230040
KC09 200435Z AUTO 14004KT 10SM CLR 13/03 A3014 RMK AO2 T01310033
KC09 200415Z AUTO 13003KT 10SM CLR 13/03 A3015 RMK AO2 T01310031
KC09 200355Z AUTO 12004KT 10SM CLR 13/03 A3015 RMK AO2 T01280030
KC09 200335Z AUTO 12004KT 10SM CLR 13/03 A3014 RMK AO2 T01310030
KC09 200315Z AUTO 12005KT 10SM CLR 14/03 A3014 RMK AO2 T01350026
KC09 200255Z AUTO 12005KT 10SM CLR 13/02 A3014 RMK AO2 T01320021
KC09 200235Z AUTO 11005KT 10SM CLR 14/02 A3014 RMK AO2 T01360020
KC09 200215Z AUTO 11006KT 10SM CLR 14/02 A3014 RMK AO2 T01400020
KC09 200155Z AUTO 11006KT 10SM CLR 14/02 A3014 RMK AO2 T01420022
KC09 200135Z AUTO 11006KT 10SM CLR 15/02 A3014 RMK AO2 T01490022
KC09 200115Z AUTO 11006KT 10SM CLR 16/02 A3014 RMK AO2 T01550021
KC09 200055Z AUTO 11007KT 10SM CLR 16/02 A3014 RMK AO2 T01550024
KC09 200035Z AUTO 10006KT 10SM CLR 16/02 A3014 RMK AO2 T01560022
KC09 200015Z AUTO 09006KT 10SM CLR 17/01 A3015 RMK AO2 T01680012
KC09 192355Z AUTO 09004KT 10SM CLR 18/01 A3014 RMK AO2 T01760005 10229 20176
KC09 192335Z AUTO 08004KT 10SM CLR 18/01 A3014 RMK AO2 T01830006
KC09 192315Z AUTO 09004KT 7SM CLR 19/01 A3014 RMK AO2 T01850009
KC09 192255Z AUTO 08003KT 10SM CLR 20/01 A3014 RMK AO2 T01980009
KC09 192235Z AUTO 10003KT 10SM CLR 21/00 A3014 RMK AO2 T02100003
KC09 192215Z AUTO 10003KT 10SM CLR 22/00 A3014 RMK AO2 T02161002
KC09 192155Z AUTO 09004KT 10SM CLR 22/M01 A3014 RMK AO2 T02241007
KC09 192135Z AUTO 13003KT 10SM CLR 22/M01 A3014 RMK AO2 T02221013
KC09 192115Z AUTO 11004KT 10SM CLR 23/M02 A3014 RMK AO2 T02251017
KC09 192055Z AUTO 00000KT 7SM CLR 22/M02 A3015 RMK AO2 T02221019
KC09 192035Z AUTO 14003KT 5SM HZ CLR 23/M02 A3015 RMK AO2 T02251024
KC09 192015Z AUTO 00000KT 10SM CLR 22/M02 A3016 RMK AO2 T02241021
KC09 191955Z AUTO 12003KT 10SM CLR 22/M02 A3015 RMK AO2 T02211024
KC09 191935Z AUTO 10004KT 10SM CLR 23/M02 A3016 RMK AO2 T02251021
KC09 191915Z AUTO 14003KT 3SM HZ CLR 22/M02 A3016 RMK AO2 T02231020
KC09 191855Z AUTO 00000KT 10SM CLR 22/M03 A3016 RMK AO2 T02171027
KC09 191835Z AUTO 12005KT 10SM CLR 22/M03 A3016 RMK AO2 T02181027
KC09 191815Z AUTO 08005KT 10SM CLR 22/M03 A3017 RMK AO2 T02151027
KC09 191755Z AUTO 06004KT 10SM CLR 21/M05 A3018 RMK AO2 T02091049 10214 20086
KC09 191735Z AUTO 06004KT 10SM CLR 21/M04 A3018 RMK AO2 T02071039
KC09 191715Z AUTO 06003KT 10SM CLR 21/M03 A3019 RMK AO2 T02061030
KC09 191655Z AUTO 07004KT 10SM CLR 20/M05 A3019 RMK AO2 T01961048
KC09 191635Z AUTO 07005KT 10SM CLR 20/M04 A3019 RMK AO2 T02011037
KC09 191615Z AUTO 07004KT 10SM CLR 19/M03 A3018 RMK AO2 T01911032
KC09 191555Z AUTO 07007KT 10SM CLR 19/M03 A3019 RMK AO2 T01881027
KC09 191535Z AUTO 05003KT 10SM CLR 18/00 A3018 RMK AO2 T01791001
KC09 191515Z AUTO 03003KT 10SM CLR 17/02 A3018 RMK AO2 T01700015